Aurora, OR

5:44 PM PST on December 22, 2014 (GMT -0800)
Portland-Hillsboro | Change Station
CLOSE
Current Station
Airport
Location: Portland Hillsboro,
Elevation: 203 ft
Nearby Weather Stations
Active Advisory: Flood Warning Active Notice: Local Storm Report

Elev 203 ft 45.54 °N, 122.95 °W | Updated 51 minutes ago

Partly Cloudy
Partly Cloudy
51 °F
Feels Like 51 °F
N
0
Wind Variable Wind from North

Today
High -- | Low -- °F
--% Chance of Precip.
Yesterday
High -- | Low -- °F
Precip. -- in
7:47 AM 4:32 PM
New Moon, 1% visible
Pressure 30.34 in
Visibility 10.0 miles
Clouds Scattered Clouds 10000 ft
Dew Point 47 °F
Humidity 86%
Rainfall 0.03 in
Snow Depth Not available.
UV 0 out of 12
Pollen .20 out of 12
Air Quality Not available.
Flu Activity Not available.
METAR KHIO 230053Z 00000KT 10SM SCT100 11/08 A3034 RMK AO2 SLP274 T01060083

More Conditions Fewer Conditions

Pressure 30.34 in
Visibility 10.0 miles
Clouds Scattered Clouds 10000 ft
Dew Point 47 °F
Humidity 86%
Rainfall 0.03 in
Snow Depth Not available.
UV 0 out of 12
Pollen .20 out of 12
Air Quality Not available.
Flu Activity Not available.
METAR KHIO 230053Z 00000KT 10SM SCT100 11/08 A3034 RMK AO2 SLP274 T01060083

More Conditions Fewer Conditions

10-Day Weather Forecast

Almanac

Astronomy

Dec. 22, 2014 Rise Set
Actual Time
Civil Twilight
Nautical Twilight
Astronomical Twilight
Moon
Length of Visible Light
Length of Day
Tomorrow will be .
, % of the Moon is Illuminated

Today's Extremes

State Highs State Lows

Community

WunderPhotos

Upload Photos

1,779,753 photos uploaded!

WunderBlogs® & News

Nearby

Air Quality

  Air Quality AQ Index Pollutant
Not available.

Snow Depth

Station Depth Elevation

Earthquake Activity

City Distance Mag. Time & Date
Minimum magnitude displayed is 2.5.

Coastal Water Temperatures

Place Temperature

Nearby Weather Stations